Terminal Aerodrome Forecast
Issued by NWS

Home | Current Version | Previous Version | Graphics & Text | Print | Product List | Glossary On
Versions: 1 2 3 4 5 6 7 8 9 10 11 12 13 14 15 16 17 18 19 20
000
FTUS43 KBIS 210439 AAB
TAFMOT
TAF AMD
KMOT 210439Z 2105/2124 17004KT 2SM -FZDZ BR OVC004
     FM211300 05005KT 1/2SM FZFG OVC003
     FM211600 03005KT 1SM -FZDZ BR OVC003
     FM212100 36005KT P6SM OVC008=

USA.gov is the U.S. government's official web portal to all federal, state and local government web resources and services.